Carlin, Nevada
Current Conditions -  °F | °C
As of 12:56 AM on Sunday 23 Nov 2014 (Local Time) from KEKO Reporting Station
Clear Clear  
Wind Chill: 23°   Ceiling: Unl
Heat Index: 30°   Visibility: 10mi
Dew Point: 24°   Wind: 7mph
Humidity: 79%   Direction: 120°ESE
Pressure: 30.15"   Gusts: NA
Location:  40.71°N, 116.1°W
Report Text: KEKO 230856Z AUTO 12006KT 10SM CLR M01/M04 A3015 RMK AO2 SLP210 T10111044 53015
Loading
Personal Weather Stations






























Interactive Weather Map New forecast layout! Learn more

10-Day Weather Forecast

Advertisements
Track Severe Weather on mobile